Green Valley, Illinois
Current Conditions -  °F | °C
As of 12:54 AM on Saturday 25 Oct 2014 (Local Time) from KPIA Reporting Station
Few Clouds Few Clouds  
Wind Chill: 57°   Ceiling: Unl
Heat Index: 57°   Visibility: 10mi
Dew Point: 50°   Wind: 0mph
Humidity: 77%   Direction: NA
Pressure: 29.95"   Gusts: NA
Location:  40.41°N, 89.64°W
Report Text: KPIA 250554Z 00000KT 10SM FEW031 14/10 A2995 RMK AO2 SLP141 T01390100 10172 20139 401890078 55008
Loading
Personal Weather Stations






























Interactive Weather Map
Tropical Storm Tracking
New forecast layout! Learn more

10-Day Weather Forecast

Advertisements
Track Severe Weather on mobile